עמוד ראשי
METAR-TAF:

METAR-TAF

שדות תעופה :

טוסון, אריזונה, ארצות הברית

קו רוחב: 32-08-32N, קו אורך: 111-10-28W, גובה: 737מטר

תצפית מזג אוויר נוכחית

הדו"ח נערך לפני 6 שעות ו 43דקות, בשעה 02:45 UTC
רוח רגועה
טמפרטורת 36 צלסיוס
לחות 7%
לחץ 1007 hPa
ראות: 16.1קילומטר
שמיים נקיים

METAR: KRYN 160245Z 00000KT 10SM CLR 36/M05 A2973

זמן: 02:28 (09:28 UTC)


TAF: חסר

תצפיות ותחזיות מזג אוויר לגבי יותר מ- 4,000 שדות תעופה ברחבי העולם. דוחות METAR ו- TAF.

התחנות הזמינות מסומנות בנקודות צהובות ואדומות על גבי המפה.

העבר את העכבר לנקודה הצבעונית על מנת לראות את שם התחנה.

לאחר מכן, לחץ כדי לראות את תוכן ואת תחזיות מזג האוויר.

כדי לשנות את המפה: לחץ על הכפתורים הירוקים עם הפלוס השחור כדי להתקרב; על הכפתור הירוק עם המקף כדי להתרחק; או בחיצים הירוקים למפות סמוכות.


METAR-TAF: